Time;durP1;ratioP1;P1;durP2;ratioP2;P2;SDS_P1;SDS_P2;PMS_P1;PMS_P2;Temp;Humidity;BMP_temperature;BMP_pressure;BME280_temperature;BME280_humidity;BME280_pressure;Samples;Min_cycle;Max_cycle;Signal;HPM_P1;HPM_P2
2022/07/16 00:03:41;;;;;;;;;;;23.10;69.70;;;;;;5015238;28;19959;-84
2022/07/16 00:06:06;;;;;;;;;;;23.10;69.40;;;;;;5021227;28;19916;-85
2022/07/16 00:08:32;;;;;;;;;;;23.10;69.10;;;;;;5019718;28;19913;-83
2022/07/16 00:10:57;;;;;;;;;;;23.10;69.40;;;;;;5020338;28;19913;-85
2022/07/16 00:13:23;;;;;;;;;;;23.00;69.60;;;;;;5021052;28;19956;-86
2022/07/16 00:15:48;;;;;;;;;;;23.00;69.80;;;;;;5020600;28;19913;-84
2022/07/16 00:20:58;;;;;;;;;;;23.00;69.90;;;;;;5019216;28;19920;-83
2022/07/16 00:23:23;;;;;;;;;;;23.00;69.50;;;;;;5018679;28;19913;-85
2022/07/16 00:25:49;;;;;;;;;;;22.90;69.70;;;;;;5019678;28;19913;-85
2022/07/16 00:28:15;;;;;;;;;;;22.80;69.90;;;;;;5018889;28;19913;-86
2022/07/16 00:30:40;;;;;;;;;;;22.80;70.00;;;;;;5020768;28;19913;-86
2022/07/16 00:33:06;;;;;;;;;;;22.80;70.10;;;;;;5022630;28;19959;-85
2022/07/16 00:35:31;;;;;;;;;;;22.70;70.30;;;;;;4998520;28;20110;-85
2022/07/16 00:37:57;;;;;;;;;;;22.70;70.00;;;;;;5013991;28;19975;-84
2022/07/16 00:40:23;;;;;;;;;;;22.60;70.10;;;;;;5011193;28;20386;-85
2022/07/16 00:42:48;;;;;;;;;;;22.70;70.00;;;;;;5018546;28;19939;-85
2022/07/16 00:45:14;;;;;;;;;;;22.60;69.70;;;;;;5020000;28;20028;-86
2022/07/16 00:47:39;;;;;;;;;;;22.60;70.00;;;;;;5020922;28;20192;-85
2022/07/16 00:50:05;;;;;;;;;;;22.50;70.20;;;;;;5003334;28;19981;-86
2022/07/16 00:52:34;;;;;;;;;;;22.50;70.10;;;;;;5010827;28;20097;-87
2022/07/16 00:55:00;;;;;;;;;;;22.50;70.10;;;;;;5029479;28;19917;-86
2022/07/16 00:57:25;;;;;;;;;;;22.50;69.80;;;;;;5018994;28;19920;-86
2022/07/16 00:59:51;;;;;;;;;;;22.40;69.80;;;;;;5019539;28;19920;-86
2022/07/16 01:02:16;;;;;;;;;;;22.40;69.90;;;;;;5002956;28;20379;-86
2022/07/16 01:04:42;;;;;;;;;;;22.40;69.60;;;;;;5017017;28;19913;-88
2022/07/16 01:07:08;;;;;;;;;;;22.30;70.00;;;;;;5019286;28;19913;-87
2022/07/16 01:09:34;;;;;;;;;;;22.30;70.00;;;;;;4994250;28;20178;-86
2022/07/16 01:12:00;;;;;;;;;;;22.20;70.30;;;;;;5018863;28;20545;-85
2022/07/16 01:14:25;;;;;;;;;;;22.20;70.40;;;;;;5022178;28;19913;-87
2022/07/16 01:16:51;;;;;;;;;;;22.20;70.40;;;;;;5002579;28;19921;-84
2022/07/16 01:19:17;;;;;;;;;;;22.20;70.20;;;;;;5009664;28;19917;-90
2022/07/16 01:21:45;;;;;;;;;;;22.10;69.80;;;;;;5029249;28;19909;-96
2022/07/16 01:24:11;;;;;;;;;;;22.10;70.20;;;;;;5020833;28;19913;-90
2022/07/16 01:26:36;;;;;;;;;;;22.10;70.00;;;;;;5043867;28;20387;-89
2022/07/16 01:29:02;;;;;;;;;;;22.00;70.10;;;;;;5011172;28;19924;-90
2022/07/16 01:31:28;;;;;;;;;;;22.00;70.30;;;;;;5013622;28;20272;-91
2022/07/16 01:36:40;;;;;;;;;;;21.90;70.60;;;;;;5023214;28;20458;-90
2022/07/16 01:39:06;;;;;;;;;;;21.80;70.50;;;;;;5029893;28;19964;-96
2022/07/16 01:41:32;;;;;;;;;;;21.60;71.30;;;;;;5017431;28;19919;-95
2022/07/16 01:43:57;;;;;;;;;;;21.70;71.20;;;;;;5006617;28;19906;-96
2022/07/16 01:46:23;;;;;;;;;;;21.70;71.50;;;;;;5015454;28;19913;-94
2022/07/16 01:48:49;;;;;;;;;;;21.60;71.60;;;;;;5032110;28;19913;-94
2022/07/16 01:51:14;;;;;;;;;;;21.60;71.60;;;;;;5033499;28;19960;-94
2022/07/16 01:53:40;;;;;;;;;;;21.60;71.90;;;;;;5010368;28;19967;-94
2022/07/16 01:56:06;;;;;;;;;;;21.50;72.00;;;;;;5015246;28;19920;-94
2022/07/16 01:58:32;;;;;;;;;;;21.50;72.00;;;;;;5011956;28;19912;-91
2022/07/16 02:00:57;;;;;;;;;;;21.40;73.20;;;;;;5011549;28;19913;-90
2022/07/16 02:03:23;;;;;;;;;;;21.40;72.90;;;;;;5021822;28;19920;-94
2022/07/16 02:05:49;;;;;;;;;;;21.40;73.00;;;;;;5024069;28;20003;-94
2022/07/16 02:08:15;;;;;;;;;;;21.30;73.40;;;;;;5005816;28;20035;-94
2022/07/16 02:10:40;;;;;;;;;;;21.30;73.20;;;;;;5009807;28;19928;-94
2022/07/16 02:13:06;;;;;;;;;;;21.20;73.50;;;;;;5026110;28;19905;-95
2022/07/16 02:15:32;;;;;;;;;;;21.10;74.00;;;;;;5034612;28;19893;-96
2022/07/16 02:17:58;;;;;;;;;;;21.10;73.80;;;;;;5045469;28;19901;-96
2022/07/16 02:20:23;;;;;;;;;;;21.00;74.20;;;;;;5046288;28;19931;-95
2022/07/16 02:22:49;;;;;;;;;;;20.90;74.70;;;;;;5041809;22;20688;-83
2022/07/16 02:25:15;;;;;;;;;;;21.00;74.40;;;;;;5008842;28;19919;-83
2022/07/16 02:28:05;;;;;;;;;;;21.00;74.30;;;;;;5019388;28;19913;-83
2022/07/16 02:30:26;;;;;;;;;;;20.90;74.40;;;;;;5012741;28;19921;-84
2022/07/16 02:32:52;;;;;;;;;;;20.90;74.70;;;;;;5021539;28;20109;-84
2022/07/16 02:35:17;;;;;;;;;;;20.80;74.90;;;;;;5023540;28;19913;-84
2022/07/16 02:37:43;;;;;;;;;;;20.80;74.80;;;;;;5020298;28;19931;-84
2022/07/16 02:40:09;;;;;;;;;;;20.80;74.60;;;;;;5020924;28;20011;-82
2022/07/16 02:42:34;;;;;;;;;;;20.70;75.10;;;;;;5029266;28;19915;-82
2022/07/16 02:45:00;;;;;;;;;;;20.70;75.50;;;;;;5016513;28;19913;-84
2022/07/16 02:47:25;;;;;;;;;;;20.60;75.10;;;;;;5018554;28;21229;-82
2022/07/16 02:49:51;;;;;;;;;;;20.60;75.40;;;;;;5021122;28;20337;-82
2022/07/16 02:52:16;;;;;;;;;;;20.50;75.80;;;;;;5020128;28;19979;-83
2022/07/16 02:54:42;;;;;;;;;;;20.50;75.60;;;;;;5018504;28;20761;-83
2022/07/16 02:57:07;;;;;;;;;;;20.50;76.20;;;;;;5001158;28;19964;-83
2022/07/16 02:59:33;;;;;;;;;;;20.60;75.70;;;;;;5016254;28;19917;-83
2022/07/16 03:01:58;;;;;;;;;;;20.50;76.30;;;;;;5029176;28;20397;-82
2022/07/16 03:04:24;;;;;;;;;;;20.40;76.50;;;;;;5030925;28;19909;-83
2022/07/16 03:06:50;;;;;;;;;;;20.30;77.00;;;;;;5015218;28;20611;-84
2022/07/16 03:09:15;;;;;;;;;;;20.30;77.10;;;;;;5014592;28;19940;-83
2022/07/16 03:11:41;;;;;;;;;;;20.30;77.20;;;;;;5021916;28;19917;-83
2022/07/16 03:14:06;;;;;;;;;;;20.20;77.60;;;;;;5013578;28;19913;-82
2022/07/16 03:16:32;;;;;;;;;;;20.20;77.70;;;;;;5022128;28;19917;-83
2022/07/16 03:18:57;;;;;;;;;;;20.20;77.60;;;;;;5021058;28;20455;-83
2022/07/16 03:21:23;;;;;;;;;;;20.00;78.60;;;;;;5020227;28;20694;-83
2022/07/16 03:23:48;;;;;;;;;;;19.90;79.60;;;;;;5021699;28;20332;-84
2022/07/16 03:26:14;;;;;;;;;;;20.00;78.00;;;;;;5008982;28;19913;-83
2022/07/16 03:28:39;;;;;;;;;;;20.10;78.00;;;;;;5016804;28;19920;-83
2022/07/16 03:31:05;;;;;;;;;;;20.00;78.30;;;;;;5019951;28;19913;-84
2022/07/16 03:33:30;;;;;;;;;;;19.90;78.60;;;;;;5022453;28;20643;-83
2022/07/16 03:35:56;;;;;;;;;;;19.90;79.20;;;;;;5003972;28;19921;-83
2022/07/16 03:41:06;;;;;;;;;;;19.80;79.70;;;;;;5024371;28;19955;-82
2022/07/16 03:43:31;;;;;;;;;;;19.70;80.60;;;;;;5018568;28;19996;-83
2022/07/16 03:45:57;;;;;;;;;;;19.60;81.10;;;;;;5015615;28;20034;-83
2022/07/16 03:48:22;;;;;;;;;;;19.60;81.50;;;;;;5023804;28;19951;-82
2022/07/16 03:50:48;;;;;;;;;;;19.50;82.60;;;;;;5020281;28;20437;-83
2022/07/16 03:53:13;;;;;;;;;;;19.50;82.00;;;;;;5021755;28;20674;-83
2022/07/16 03:55:39;;;;;;;;;;;19.60;81.00;;;;;;5012884;28;20377;-83
2022/07/16 03:58:04;;;;;;;;;;;19.50;81.70;;;;;;5021743;28;19921;-83
2022/07/16 04:00:30;;;;;;;;;;;19.60;81.00;;;;;;5018513;28;19925;-84
2022/07/16 04:02:55;;;;;;;;;;;19.50;81.60;;;;;;5005511;28;19913;-84
2022/07/16 04:05:20;;;;;;;;;;;19.50;81.40;;;;;;5023088;28;20297;-83
2022/07/16 04:07:46;;;;;;;;;;;19.50;81.80;;;;;;5002504;28;19913;-83
2022/07/16 04:10:12;;;;;;;;;;;19.40;82.30;;;;;;5013190;28;19967;-83
2022/07/16 04:12:37;;;;;;;;;;;19.40;82.50;;;;;;5021913;28;19913;-83
2022/07/16 04:15:03;;;;;;;;;;;19.30;83.40;;;;;;5021266;28;20000;-83
2022/07/16 04:17:28;;;;;;;;;;;19.30;83.20;;;;;;5026690;28;19920;-80
2022/07/16 04:19:54;;;;;;;;;;;19.30;83.00;;;;;;5027141;28;19908;-80
2022/07/16 04:22:19;;;;;;;;;;;19.30;83.70;;;;;;5024109;28;19969;-80
2022/07/16 04:24:45;;;;;;;;;;;19.20;84.10;;;;;;5013351;28;20393;-81
2022/07/16 04:27:10;;;;;;;;;;;19.30;84.40;;;;;;5025040;28;19913;-83
2022/07/16 04:29:36;;;;;;;;;;;19.20;84.40;;;;;;5001424;28;19963;-83
2022/07/16 04:32:02;;;;;;;;;;;19.20;84.20;;;;;;5020499;28;19913;-83
2022/07/16 04:34:27;;;;;;;;;;;19.10;85.10;;;;;;5028412;28;19936;-84
2022/07/16 04:36:53;;;;;;;;;;;19.00;85.90;;;;;;5021988;28;20458;-85
2022/07/16 04:39:18;;;;;;;;;;;19.20;85.10;;;;;;5016577;28;20429;-85
2022/07/16 04:41:44;;;;;;;;;;;19.50;83.80;;;;;;5006113;28;19913;-88
2022/07/16 04:44:09;;;;;;;;;;;19.90;80.90;;;;;;5014879;28;19912;-87
2022/07/16 04:46:35;;;;;;;;;;;20.20;78.90;;;;;;5031013;28;19959;-89
2022/07/16 04:49:01;;;;;;;;;;;20.20;79.10;;;;;;5019627;28;20305;-88
2022/07/16 04:51:26;;;;;;;;;;;20.30;77.90;;;;;;5002626;28;20185;-89
2022/07/16 04:53:52;;;;;;;;;;;20.30;78.20;;;;;;5036075;28;20397;-89
2022/07/16 04:56:17;;;;;;;;;;;20.50;77.20;;;;;;5008868;28;20452;-89
2022/07/16 04:58:43;;;;;;;;;;;20.60;76.70;;;;;;5024670;28;20385;-86
2022/07/16 05:01:08;;;;;;;;;;;20.80;75.40;;;;;;5013325;28;19913;-86
2022/07/16 05:03:34;;;;;;;;;;;20.90;74.70;;;;;;5010597;28;20381;-86
2022/07/16 05:05:59;;;;;;;;;;;21.10;75.00;;;;;;5027272;28;19919;-85
2022/07/16 05:08:25;;;;;;;;;;;21.20;73.50;;;;;;5010444;28;19913;-83
2022/07/16 05:10:50;;;;;;;;;;;20.90;74.20;;;;;;5017518;28;19916;-86
2022/07/16 05:13:16;;;;;;;;;;;21.40;73.00;;;;;;5016548;28;20345;-85
2022/07/16 05:15:42;;;;;;;;;;;22.10;70.80;;;;;;5026196;28;20683;-86
2022/07/16 05:18:08;;;;;;;;;;;22.40;68.80;;;;;;5026041;28;19925;-86
2022/07/16 05:20:33;;;;;;;;;;;22.40;68.00;;;;;;5022849;28;19956;-86
2022/07/16 05:22:59;;;;;;;;;;;22.60;67.30;;;;;;5019192;28;20514;-85
2022/07/16 05:25:24;;;;;;;;;;;22.80;66.50;;;;;;5025143;28;19916;-85
2022/07/16 05:27:50;;;;;;;;;;;23.10;65.90;;;;;;5016591;28;19944;-86
2022/07/16 05:30:16;;;;;;;;;;;23.10;65.50;;;;;;5020259;28;19913;-87
2022/07/16 05:32:42;;;;;;;;;;;23.60;64.60;;;;;;5024561;28;19955;-86
2022/07/16 05:35:08;;;;;;;;;;;23.90;63.80;;;;;;5017339;28;20555;-86
2022/07/16 05:37:33;;;;;;;;;;;24.00;63.60;;;;;;5026716;28;20035;-86
2022/07/16 05:39:59;;;;;;;;;;;24.00;62.80;;;;;;5026893;28;19991;-86
2022/07/16 05:42:25;;;;;;;;;;;24.50;62.50;;;;;;5021759;28;20672;-85
2022/07/16 05:44:50;;;;;;;;;;;24.40;62.20;;;;;;5022815;28;19913;-84
2022/07/16 05:47:16;;;;;;;;;;;24.70;61.40;;;;;;5033894;28;19913;-85
2022/07/16 05:49:41;;;;;;;;;;;24.70;61.00;;;;;;5024561;28;19909;-85
2022/07/16 05:52:07;;;;;;;;;;;25.20;59.90;;;;;;5017979;28;19956;-86
2022/07/16 05:54:32;;;;;;;;;;;24.90;60.60;;;;;;5016054;28;19912;-86
2022/07/16 05:56:58;;;;;;;;;;;25.10;60.00;;;;;;5024194;28;20511;-85
2022/07/16 05:59:23;;;;;;;;;;;25.50;59.30;;;;;;5023867;28;20010;-86
2022/07/16 06:01:49;;;;;;;;;;;25.50;59.10;;;;;;5022851;28;20003;-86
2022/07/16 06:04:14;;;;;;;;;;;25.40;59.30;;;;;;5015202;28;20441;-86
2022/07/16 06:06:40;;;;;;;;;;;25.50;58.70;;;;;;5023104;28;19913;-87
2022/07/16 06:09:05;;;;;;;;;;;25.90;58.60;;;;;;5026030;28;19913;-85
2022/07/16 06:11:31;;;;;;;;;;;26.30;57.00;;;;;;5021580;28;20555;-86
2022/07/16 06:13:56;;;;;;;;;;;26.70;57.00;;;;;;5020764;28;20435;-86
2022/07/16 06:16:22;;;;;;;;;;;26.60;56.50;;;;;;5022616;28;19921;-86
2022/07/16 06:18:48;;;;;;;;;;;26.80;56.00;;;;;;5023631;28;19912;-86
2022/07/16 06:21:13;;;;;;;;;;;26.90;56.70;;;;;;5023009;28;20002;-85
2022/07/16 06:23:39;;;;;;;;;;;26.90;55.60;;;;;;5019321;28;19953;-86
2022/07/16 06:26:04;;;;;;;;;;;27.20;56.10;;;;;;5019556;28;20448;-86
2022/07/16 06:28:30;;;;;;;;;;;27.50;54.80;;;;;;5007802;28;19913;-86
2022/07/16 06:30:55;;;;;;;;;;;27.80;54.30;;;;;;5023790;28;19962;-85
2022/07/16 06:33:21;;;;;;;;;;;28.40;53.60;;;;;;5017422;28;20438;-86
2022/07/16 06:35:46;;;;;;;;;;;28.20;54.10;;;;;;5021359;28;19912;-86
2022/07/16 06:38:12;;;;;;;;;;;28.50;53.50;;;;;;5007255;28;19917;-86
2022/07/16 06:40:41;;;;;;;;;;;28.10;52.80;;;;;;5024570;28;19908;-87
2022/07/16 06:43:06;;;;;;;;;;;28.30;52.60;;;;;;5005042;28;20329;-85
2022/07/16 06:45:32;;;;;;;;;;;28.50;52.90;;;;;;4999777;28;19959;-86
2022/07/16 06:47:57;;;;;;;;;;;29.00;52.20;;;;;;5005126;28;20330;-87
2022/07/16 06:50:24;;;;;;;;;;;29.10;51.70;;;;;;5018264;28;19913;-86
2022/07/16 06:52:50;;;;;;;;;;;29.00;51.40;;;;;;5022993;28;20490;-86
2022/07/16 06:55:16;;;;;;;;;;;28.90;51.30;;;;;;5021481;28;19983;-86
2022/07/16 06:57:41;;;;;;;;;;;29.30;51.60;;;;;;5016839;28;20449;-86
2022/07/16 07:00:07;;;;;;;;;;;29.30;51.10;;;;;;5032279;28;19920;-86
2022/07/16 07:02:33;;;;;;;;;;;29.80;50.60;;;;;;5011222;28;19928;-86
2022/07/16 07:04:59;;;;;;;;;;;30.10;50.00;;;;;;5028759;28;19938;-86
2022/07/16 07:07:24;;;;;;;;;;;30.40;49.50;;;;;;5021023;28;20434;-87
2022/07/16 07:09:50;;;;;;;;;;;30.10;49.70;;;;;;5024457;28;20298;-86
2022/07/16 07:12:15;;;;;;;;;;;30.50;50.10;;;;;;5024163;28;20282;-86
2022/07/16 07:14:41;;;;;;;;;;;30.20;49.90;;;;;;5021162;28;19986;-88
2022/07/16 07:17:06;;;;;;;;;;;31.20;48.90;;;;;;5021796;28;19924;-87
2022/07/16 07:19:32;;;;;;;;;;;30.80;49.30;;;;;;5021999;28;19920;-86
2022/07/16 07:21:57;;;;;;;;;;;30.20;49.50;;;;;;5019294;28;19928;-87
2022/07/16 07:24:23;;;;;;;;;;;30.70;49.00;;;;;;5022246;28;19944;-87
2022/07/16 07:26:48;;;;;;;;;;;31.10;48.90;;;;;;5022182;28;19927;-87
2022/07/16 07:29:14;;;;;;;;;;;31.50;47.90;;;;;;5024350;28;20412;-87
2022/07/16 07:31:39;;;;;;;;;;;31.60;48.80;;;;;;5024295;28;19909;-87
2022/07/16 07:34:05;;;;;;;;;;;32.10;47.00;;;;;;5018360;28;19913;-87
2022/07/16 07:36:30;;;;;;;;;;;32.10;47.60;;;;;;5023848;28;19913;-87
2022/07/16 07:38:56;;;;;;;;;;;32.10;47.10;;;;;;5023707;28;20613;-87
2022/07/16 07:41:21;;;;;;;;;;;32.20;47.00;;;;;;5022018;28;19959;-87
2022/07/16 07:43:47;;;;;;;;;;;32.40;47.50;;;;;;5017281;28;19995;-88
2022/07/16 07:46:12;;;;;;;;;;;33.30;46.30;;;;;;5015500;28;19959;-87
2022/07/16 07:48:38;;;;;;;;;;;32.90;46.90;;;;;;5021307;28;19909;-88
2022/07/16 07:51:05;;;;;;;;;;;33.50;46.00;;;;;;5034946;28;19913;-86
2022/07/16 07:53:31;;;;;;;;;;;32.90;46.30;;;;;;5023891;28;19909;-87
2022/07/16 07:55:56;;;;;;;;;;;33.50;45.90;;;;;;4993567;28;19913;-86
2022/07/16 07:58:23;;;;;;;;;;;34.00;44.50;;;;;;5004121;28;19929;-87
2022/07/16 08:00:48;;;;;;;;;;;34.00;45.00;;;;;;5007173;28;19913;-87
2022/07/16 08:03:14;;;;;;;;;;;34.70;45.60;;;;;;5004010;28;20659;-88
2022/07/16 08:05:39;;;;;;;;;;;35.10;45.80;;;;;;5005354;28;19929;-87
2022/07/16 08:08:05;;;;;;;;;;;35.00;44.70;;;;;;5018160;28;19909;-87
2022/07/16 08:10:31;;;;;;;;;;;34.40;44.80;;;;;;5003131;28;20279;-87
2022/07/16 08:12:56;;;;;;;;;;;35.70;44.10;;;;;;5005449;28;20396;-88
2022/07/16 08:15:22;;;;;;;;;;;35.50;43.70;;;;;;5007207;28;19951;-88
2022/07/16 08:17:47;;;;;;;;;;;36.10;43.60;;;;;;5019694;28;19920;-88
2022/07/16 08:20:16;;;;;;;;;;;36.50;44.20;;;;;;5005448;28;19921;-87
2022/07/16 08:22:42;;;;;;;;;;;35.80;42.80;;;;;;5003261;28;19921;-87
2022/07/16 08:27:52;;;;;;;;;;;36.10;43.60;;;;;;5010589;28;19927;-87
2022/07/16 08:30:18;;;;;;;;;;;35.90;42.70;;;;;;5017596;28;20286;-87
2022/07/16 08:32:43;;;;;;;;;;;36.70;42.30;;;;;;5026072;28;20308;-87
2022/07/16 08:35:09;;;;;;;;;;;36.00;43.90;;;;;;5012597;28;19921;-87
2022/07/16 08:37:36;;;;;;;;;;;37.00;43.00;;;;;;5024310;28;19923;-86
2022/07/16 08:40:07;;;;;;;;;;;37.00;42.00;;;;;;5023093;28;20297;-86
2022/07/16 08:42:33;;;;;;;;;;;35.70;43.00;;;;;;5017822;28;20768;-86
2022/07/16 08:44:59;;;;;;;;;;;36.60;43.40;;;;;;5029260;28;19928;-88
2022/07/16 08:47:25;;;;;;;;;;;37.10;42.30;;;;;;5027369;28;19921;-88
2022/07/16 08:49:51;;;;;;;;;;;37.00;41.60;;;;;;5022059;28;19936;-88
2022/07/16 08:52:19;;;;;;;;;;;37.70;41.80;;;;;;5027404;28;19948;-88
2022/07/16 08:54:45;;;;;;;;;;;37.70;41.60;;;;;;5027714;28;19916;-88
2022/07/16 08:57:11;;;;;;;;;;;38.30;42.20;;;;;;5011481;28;20282;-88
2022/07/16 08:59:37;;;;;;;;;;;38.90;41.30;;;;;;5020492;28;19916;-87
2022/07/16 09:02:02;;;;;;;;;;;38.90;40.70;;;;;;5033068;28;19909;-88
2022/07/16 09:04:28;;;;;;;;;;;37.30;42.00;;;;;;5031347;28;19916;-87
2022/07/16 09:06:53;;;;;;;;;;;37.90;43.50;;;;;;5007949;28;19928;-88
2022/07/16 09:09:19;;;;;;;;;;;38.60;40.90;;;;;;5010034;28;20834;-88
2022/07/16 09:11:46;;;;;;;;;;;39.00;40.90;;;;;;5027275;28;20376;-88
2022/07/16 09:14:13;;;;;;;;;;;37.70;41.80;;;;;;5027783;28;19908;-88
2022/07/16 09:16:40;;;;;;;;;;;37.80;41.10;;;;;;5027484;28;19909;-87
2022/07/16 09:19:16;;;;;;;;;;;36.80;43.00;;;;;;5027151;28;19948;-87
2022/07/16 09:22:00;;;;;;;;;;;37.60;42.00;;;;;;5029386;28;19983;-88
2022/07/16 09:24:33;;;;;;;;;;;38.50;40.90;;;;;;5028681;28;19917;-88
2022/07/16 09:27:00;;;;;;;;;;;38.30;40.80;;;;;;5025347;28;20436;-88
2022/07/16 09:29:25;;;;;;;;;;;39.50;41.40;;;;;;5026999;28;19912;-91
2022/07/16 09:31:53;;;;;;;;;;;38.90;40.90;;;;;;5014121;28;19995;-90
2022/07/16 09:34:19;;;;;;;;;;;38.00;41.20;;;;;;5041862;28;19943;-90
2022/07/16 09:37:04;;;;;;;;;;;37.70;40.80;;;;;;5027593;28;20030;-91
2022/07/16 09:39:31;;;;;;;;;;;37.40;41.30;;;;;;5042308;28;19921;-92
2022/07/16 09:41:56;;;;;;;;;;;39.50;41.00;;;;;;5029537;28;19915;-84
2022/07/16 09:44:24;;;;;;;;;;;38.70;41.60;;;;;;5026748;28;20446;-90
2022/07/16 09:47:00;;;;;;;;;;;38.70;40.50;;;;;;5037505;28;19921;-91
2022/07/16 09:49:26;;;;;;;;;;;39.50;40.20;;;;;;5023951;28;19913;-91
2022/07/16 09:51:52;;;;;;;;;;;39.60;39.20;;;;;;5030658;28;19951;-91
2022/07/16 09:54:29;;;;;;;;;;;38.20;40.30;;;;;;5027755;28;19909;-91
2022/07/16 09:57:08;;;;;;;;;;;39.20;40.20;;;;;;5023370;28;19925;-93
2022/07/16 09:59:33;;;;;;;;;;;40.20;39.00;;;;;;5017063;28;19908;-91
2022/07/16 10:02:00;;;;;;;;;;;40.40;38.90;;;;;;5012221;28;19920;-92
2022/07/16 10:04:26;;;;;;;;;;;39.60;38.30;;;;;;5030295;28;19944;-92
2022/07/16 10:06:52;;;;;;;;;;;40.30;36.90;;;;;;5011686;28;19960;-91
2022/07/16 10:09:17;;;;;;;;;;;39.70;36.90;;;;;;5010648;28;19919;-91
2022/07/16 10:11:43;;;;;;;;;;;41.00;38.40;;;;;;5028692;28;20115;-92
2022/07/16 10:14:09;;;;;;;;;;;39.90;36.10;;;;;;5029484;28;19908;-92
2022/07/16 10:16:39;;;;;;;;;;;40.10;37.60;;;;;;5029714;28;19913;-92
2022/07/16 10:19:06;;;;;;;;;;;39.70;37.50;;;;;;5012786;28;19909;-92
2022/07/16 10:21:31;;;;;;;;;;;39.80;36.80;;;;;;5011713;28;19963;-92
2022/07/16 10:24:08;;;;;;;;;;;41.60;37.50;;;;;;5029895;28;19921;-90
2022/07/16 10:26:34;;;;;;;;;;;39.10;39.50;;;;;;5024767;28;20007;-89
2022/07/16 10:28:59;;;;;;;;;;;37.80;38.20;;;;;;5015978;28;19967;-89
2022/07/16 10:32:26;;;;;;;;;;;37.50;39.60;;;;;;5008178;28;20290;-90
2022/07/16 10:34:31;;;;;;;;;;;37.00;40.00;;;;;;5016075;28;19947;-90
2022/07/16 10:36:56;;;;;;;;;;;36.30;41.20;;;;;;5010708;28;20301;-88
2022/07/16 10:39:23;;;;;;;;;;;37.80;40.70;;;;;;5031248;28;19913;-89
2022/07/16 10:41:59;;;;;;;;;;;37.20;41.80;;;;;;5010541;28;20023;-92
2022/07/16 10:44:26;;;;;;;;;;;36.70;42.10;;;;;;5032846;28;20387;-88
2022/07/16 10:46:56;;;;;;;;;;;34.80;43.10;;;;;;5047934;28;19916;-89
2022/07/16 10:49:23;;;;;;;;;;;34.80;43.90;;;;;;5034307;28;19909;-91
2022/07/16 10:51:55;;;;;;;;;;;34.10;44.10;;;;;;5020035;28;19909;-91
2022/07/16 10:54:21;;;;;;;;;;;34.60;44.90;;;;;;5026764;28;19966;-89
2022/07/16 10:56:48;;;;;;;;;;;34.30;43.90;;;;;;5009378;28;19999;-91
2022/07/16 10:59:14;;;;;;;;;;;33.40;47.40;;;;;;5027445;28;19909;-91
2022/07/16 11:01:41;;;;;;;;;;;33.10;45.60;;;;;;5027369;28;20340;-91
2022/07/16 11:04:07;;;;;;;;;;;32.80;46.00;;;;;;5035819;28;20274;-92
2022/07/16 11:06:33;;;;;;;;;;;32.70;45.70;;;;;;5027470;28;19917;-88
2022/07/16 11:08:59;;;;;;;;;;;32.90;45.60;;;;;;5002683;28;19920;-90
2022/07/16 11:11:38;;;;;;;;;;;32.80;46.20;;;;;;5039123;28;19912;-90
2022/07/16 11:14:05;;;;;;;;;;;32.70;45.30;;;;;;5010359;28;19944;-91
2022/07/16 11:16:31;;;;;;;;;;;32.70;44.60;;;;;;5027130;28;20046;-90
2022/07/16 11:19:00;;;;;;;;;;;32.60;47.20;;;;;;5029105;28;19980;-90
2022/07/16 11:21:27;;;;;;;;;;;32.60;46.50;;;;;;5027102;28;19909;-91
2022/07/16 11:23:54;;;;;;;;;;;32.60;46.30;;;;;;5027568;28;19929;-90
2022/07/16 11:26:20;;;;;;;;;;;32.30;45.60;;;;;;5009315;28;19999;-89
2022/07/16 11:29:14;;;;;;;;;;;32.20;45.30;;;;;;5008537;28;20894;-90
2022/07/16 11:31:40;;;;;;;;;;;32.40;45.90;;;;;;4941996;28;19915;-90
2022/07/16 11:34:07;;;;;;;;;;;32.30;46.60;;;;;;4925098;29;19989;-84
2022/07/16 11:36:36;;;;;;;;;;;32.20;46.30;;;;;;4943746;28;19910;-88
2022/07/16 11:39:06;;;;;;;;;;;32.00;47.20;;;;;;4946391;28;20498;-89
2022/07/16 11:41:32;;;;;;;;;;;32.30;47.10;;;;;;4938240;29;19911;-89
2022/07/16 11:43:58;;;;;;;;;;;32.10;48.00;;;;;;4943859;28;19910;-87
2022/07/16 11:46:25;;;;;;;;;;;32.00;46.60;;;;;;4927073;29;19930;-87
2022/07/16 11:48:51;;;;;;;;;;;31.90;45.10;;;;;;4944042;28;20026;-88
2022/07/16 11:51:16;;;;;;;;;;;31.90;46.10;;;;;;4943396;28;19910;-88
2022/07/16 11:53:46;;;;;;;;;;;32.10;45.80;;;;;;4943724;28;19936;-88
2022/07/16 11:56:14;;;;;;;;;;;32.00;45.80;;;;;;4942513;28;20581;-88
2022/07/16 11:58:39;;;;;;;;;;;32.20;49.30;;;;;;4938801;28;19915;-88
2022/07/16 12:01:05;;;;;;;;;;;32.10;44.90;;;;;;4923695;28;19919;-87
2022/07/16 12:03:30;;;;;;;;;;;32.30;48.20;;;;;;4924458;29;20439;-87
2022/07/16 12:06:00;;;;;;;;;;;32.50;46.90;;;;;;4924199;28;19915;-86
2022/07/16 12:08:27;;;;;;;;;;;32.30;48.00;;;;;;4983199;28;20419;-87
2022/07/16 12:11:19;;;;;;;;;;;32.30;45.80;;;;;;5023785;28;19921;-87
2022/07/16 12:13:52;;;;;;;;;;;32.20;47.90;;;;;;5020559;28;20395;-86
2022/07/16 12:16:18;;;;;;;;;;;32.10;46.50;;;;;;5004872;28;19909;-87
2022/07/16 12:18:59;;;;;;;;;;;32.20;48.60;;;;;;5017731;28;20788;-86
2022/07/16 12:21:28;;;;;;;;;;;32.00;46.00;;;;;;5023690;28;19940;-85
2022/07/16 12:23:54;;;;;;;;;;;32.10;45.60;;;;;;5022582;28;19933;-86
2022/07/16 12:26:30;;;;;;;;;;;32.20;45.00;;;;;;5001664;28;19966;-86
2022/07/16 12:28:56;;;;;;;;;;;32.10;44.60;;;;;;5019782;28;19917;-87
2022/07/16 12:31:24;;;;;;;;;;;32.00;44.70;;;;;;5028133;28;19916;-86
2022/07/16 12:33:51;;;;;;;;;;;32.10;44.40;;;;;;5027640;28;19967;-86
2022/07/16 12:36:18;;;;;;;;;;;32.20;45.70;;;;;;5021075;28;19913;-86
2022/07/16 12:41:42;;;;;;;;;;;32.40;47.10;;;;;;5021501;28;19913;-86
2022/07/16 12:44:09;;;;;;;;;;;32.20;46.00;;;;;;5008282;28;19928;-88
2022/07/16 12:46:39;;;;;;;;;;;32.10;45.20;;;;;;5016422;28;19921;-89
2022/07/16 12:49:06;;;;;;;;;;;32.10;45.50;;;;;;5018584;28;19924;-87
2022/07/16 12:51:36;;;;;;;;;;;32.30;45.00;;;;;;5019180;28;20468;-87
2022/07/16 12:54:02;;;;;;;;;;;32.10;43.40;;;;;;5015488;28;19992;-87
2022/07/16 12:59:12;;;;;;;;;;;32.20;43.40;;;;;;5020555;28;19920;-88
2022/07/16 13:01:38;;;;;;;;;;;32.40;42.70;;;;;;5019090;28;19913;-86
2022/07/16 13:04:04;;;;;;;;;;;32.20;42.20;;;;;;5015278;28;19917;-87
2022/07/16 13:06:31;;;;;;;;;;;32.30;42.70;;;;;;5020341;28;19916;-87
2022/07/16 13:08:56;;;;;;;;;;;32.20;41.70;;;;;;5014793;28;19912;-87
2022/07/16 13:11:22;;;;;;;;;;;32.30;43.00;;;;;;5018865;28;19967;-87
2022/07/16 13:13:48;;;;;;;;;;;32.40;42.80;;;;;;5020897;28;19963;-87
2022/07/16 13:16:16;;;;;;;;;;;32.30;44.10;;;;;;5017008;28;20387;-87
2022/07/16 13:18:42;;;;;;;;;;;32.30;43.50;;;;;;5017581;28;19909;-87
2022/07/16 13:21:07;;;;;;;;;;;32.30;44.70;;;;;;5021828;28;20039;-87
2022/07/16 13:23:34;;;;;;;;;;;32.30;43.90;;;;;;5022238;28;19928;-87
2022/07/16 13:25:59;;;;;;;;;;;32.30;43.50;;;;;;5022079;28;19917;-86
2022/07/16 13:28:26;;;;;;;;;;;32.10;44.30;;;;;;5024096;28;20023;-87
2022/07/16 13:30:51;;;;;;;;;;;32.10;43.90;;;;;;5021036;28;20032;-88
2022/07/16 13:33:17;;;;;;;;;;;32.30;43.00;;;;;;5023030;28;20290;-87
2022/07/16 13:35:42;;;;;;;;;;;32.30;42.50;;;;;;5024226;28;19917;-87
2022/07/16 13:38:08;;;;;;;;;;;32.30;43.20;;;;;;5022435;28;19913;-87
2022/07/16 13:40:34;;;;;;;;;;;32.40;43.40;;;;;;5022264;28;20123;-87
2022/07/16 13:42:59;;;;;;;;;;;32.20;42.90;;;;;;5024864;28;19928;-87
2022/07/16 13:45:25;;;;;;;;;;;32.30;46.20;;;;;;5011356;28;19923;-86
2022/07/16 13:47:51;;;;;;;;;;;32.20;44.50;;;;;;5034088;28;19924;-86
2022/07/16 13:50:16;;;;;;;;;;;32.30;44.00;;;;;;5034462;28;19913;-86
2022/07/16 13:52:42;;;;;;;;;;;32.30;44.00;;;;;;5024362;28;20010;-86
2022/07/16 13:55:08;;;;;;;;;;;32.10;44.90;;;;;;5036325;28;19970;-86
2022/07/16 14:00:21;;;;;;;;;;;32.30;42.10;;;;;;5027435;28;19916;-85
2022/07/16 14:02:47;;;;;;;;;;;32.20;43.20;;;;;;5020128;28;19913;-85
2022/07/16 14:05:12;;;;;;;;;;;32.00;41.80;;;;;;5024117;28;19944;-85
2022/07/16 14:07:38;;;;;;;;;;;32.10;42.90;;;;;;5026859;28;19927;-85
2022/07/16 14:10:04;;;;;;;;;;;32.40;42.70;;;;;;5036324;28;20026;-85
2022/07/16 14:12:30;;;;;;;;;;;32.00;42.50;;;;;;5032036;28;19928;-85
2022/07/16 14:14:55;;;;;;;;;;;32.20;43.40;;;;;;5021217;28;19913;-85
2022/07/16 14:17:21;;;;;;;;;;;32.30;42.00;;;;;;5033824;28;19936;-85
2022/07/16 14:19:46;;;;;;;;;;;32.10;41.00;;;;;;5039606;28;20427;-85
2022/07/16 14:22:12;;;;;;;;;;;31.90;40.70;;;;;;5004311;28;20457;-84
2022/07/16 14:24:38;;;;;;;;;;;32.20;41.30;;;;;;5022445;28;19920;-85
2022/07/16 14:27:04;;;;;;;;;;;32.20;40.00;;;;;;5008156;28;20392;-86
2022/07/16 14:29:29;;;;;;;;;;;32.00;40.10;;;;;;5006463;28;19917;-86
2022/07/16 14:31:55;;;;;;;;;;;32.00;39.90;;;;;;5010629;28;19916;-86
2022/07/16 14:34:20;;;;;;;;;;;32.20;40.70;;;;;;5039464;28;19913;-86